createdAt,value
2023-12-16T00:02:08.163Z,99287.31
2023-12-16T00:07:12.509Z,99288.25
2023-12-16T00:12:17.067Z,99299.75
2023-12-16T00:17:20.532Z,99304.16
2023-12-16T00:22:23.907Z,99335.13
2023-12-16T00:27:28.458Z,99336.41
2023-12-16T00:32:31.372Z,99315.81
2023-12-16T00:37:34.300Z,99323.34
2023-12-16T00:42:38.744Z,99334.41
2023-12-16T00:47:42.013Z,99337.66
2023-12-16T00:52:45.216Z,99335.38
2023-12-16T00:57:49.642Z,99323.56
2023-12-16T01:02:52.645Z,99332.28
2023-12-16T01:07:55.546Z,99320.53
2023-12-16T01:12:59.916Z,99331.88
2023-12-16T01:18:03.005Z,99335.03
2023-12-16T01:23:05.944Z,99348.22
2023-12-16T01:28:10.268Z,99349.69
2023-12-16T01:33:14.272Z,99351.44
2023-12-16T01:38:17.319Z,99356.78
2023-12-16T01:43:21.772Z,99359.31
2023-12-16T01:48:25.103Z,99368.78
2023-12-16T01:53:29.457Z,99360.59
2023-12-16T01:58:33.727Z,99363.41
2023-12-16T02:03:38.622Z,99367.94
2023-12-16T02:08:41.860Z,99367.13
2023-12-16T02:13:46.213Z,99363.81
2023-12-16T02:18:51.083Z,99361.28
2023-12-16T02:23:55.625Z,99354.84
2023-12-16T02:28:58.569Z,99355.09
2023-12-16T02:34:01.573Z,99361.22
2023-12-16T02:39:05.969Z,99367.63
2023-12-16T02:44:09.564Z,99387.59
2023-12-16T02:49:12.574Z,99374.03
2023-12-16T02:54:16.984Z,99384.09
2023-12-16T02:59:19.899Z,99377.22
2023-12-16T03:04:22.958Z,99374.47
2023-12-16T03:09:27.286Z,99368.47
2023-12-16T03:14:30.446Z,99375.72
2023-12-16T03:19:33.485Z,99395.59
2023-12-16T03:24:37.898Z,99409.34
2023-12-16T03:29:40.805Z,99408.28
2023-12-16T03:34:43.791Z,99420.88
2023-12-16T03:39:48.212Z,99429.56
2023-12-16T03:44:51.161Z,99432.75
2023-12-16T03:49:54.167Z,99420.16
2023-12-16T03:54:58.516Z,99427.88
2023-12-16T04:00:01.479Z,99441.94
2023-12-16T04:05:04.855Z,99450.28
2023-12-16T04:10:11.361Z,99441.00
2023-12-16T04:15:14.319Z,99442.31
2023-12-16T04:20:17.531Z,99458.84
2023-12-16T04:25:21.883Z,99455.22
2023-12-16T04:30:24.887Z,99467.19
2023-12-16T04:35:28.098Z,99467.97
2023-12-16T04:40:32.697Z,99463.41
2023-12-16T04:45:36.970Z,99464.19
2023-12-16T04:50:39.947Z,99454.63
2023-12-16T04:55:44.435Z,99462.44
2023-12-16T05:00:47.460Z,99472.63
2023-12-16T05:05:50.432Z,99474.41
2023-12-16T05:10:54.761Z,99466.06
2023-12-16T05:15:57.634Z,99483.91
2023-12-16T05:21:00.568Z,99470.22
2023-12-16T05:26:05.035Z,99483.09
2023-12-16T05:31:08.177Z,99483.47
2023-12-16T05:36:11.814Z,99488.50
2023-12-16T05:41:16.411Z,99496.53
2023-12-16T05:46:19.385Z,99504.75
2023-12-16T05:51:22.303Z,99509.69
2023-12-16T05:56:26.598Z,99508.59
2023-12-16T06:01:29.595Z,99512.94
2023-12-16T06:06:32.594Z,99532.84
2023-12-16T06:11:36.972Z,99537.91
2023-12-16T06:16:40.001Z,99540.25
2023-12-16T06:21:42.948Z,99542.13
2023-12-16T06:26:48.490Z,99548.97
2023-12-16T06:31:51.503Z,99553.16
2023-12-16T06:36:54.395Z,99560.84
2023-12-16T06:41:58.690Z,99566.69
2023-12-16T06:47:01.611Z,99574.72
2023-12-16T06:52:04.853Z,99579.66
2023-12-16T06:57:09.193Z,99587.69
2023-12-16T07:02:12.080Z,99587.59
2023-12-16T07:07:15.033Z,99592.50
2023-12-16T07:12:19.876Z,99592.13
2023-12-16T07:17:22.790Z,99604.28
2023-12-16T07:22:25.739Z,99609.72
2023-12-16T07:27:30.106Z,99623.78
2023-12-16T07:32:33.163Z,99625.75
2023-12-16T07:37:36.669Z,99633.44
2023-12-16T07:42:42.791Z,99613.63
2023-12-16T07:47:45.966Z,99619.34
2023-12-16T07:52:49.398Z,99633.56
2023-12-16T07:57:54.150Z,99628.38
2023-12-16T08:02:57.157Z,99638.50
2023-12-16T08:08:00.207Z,99629.53
2023-12-16T08:13:04.592Z,99636.88
2023-12-16T08:18:09.129Z,99631.47
2023-12-16T08:23:12.369Z,99643.38
2023-12-16T08:28:17.785Z,99635.41
2023-12-16T08:33:20.819Z,99634.44
2023-12-16T08:38:23.836Z,99632.41
2023-12-16T08:43:29.653Z,99634.66
2023-12-16T08:48:33.086Z,99635.34
2023-12-16T08:53:35.962Z,99637.22
2023-12-16T08:58:40.455Z,99644.94
2023-12-16T09:03:44.925Z,99648.78
2023-12-16T09:08:47.942Z,99647.50
2023-12-16T09:13:52.172Z,99660.59
2023-12-16T09:18:55.180Z,99662.84
2023-12-16T09:23:58.124Z,99662.03
2023-12-16T09:29:03.090Z,99665.66
2023-12-16T09:34:06.235Z,99660.16
2023-12-16T09:39:11.290Z,99643.59
2023-12-16T09:44:20.123Z,99661.75
2023-12-16T09:49:25.596Z,99652.09
2023-12-16T09:54:28.741Z,99646.09
2023-12-16T09:59:34.128Z,99651.47
2023-12-16T10:04:38.052Z,99652.25
2023-12-16T10:09:41.022Z,99650.03
2023-12-16T10:14:49.084Z,99649.06
2023-12-16T10:19:52.018Z,99645.72
2023-12-16T10:24:55.495Z,99637.31
2023-12-16T10:30:07.190Z,99624.25
2023-12-16T10:35:12.972Z,99611.16
2023-12-16T10:40:17.155Z,99602.72
2023-12-16T10:45:21.924Z,99596.03
2023-12-16T10:50:27.020Z,99595.84
2023-12-16T10:55:33.224Z,99583.47
2023-12-16T11:00:41.533Z,99581.03
2023-12-16T11:05:50.073Z,99577.25
2023-12-16T11:10:54.823Z,99563.50
2023-12-16T11:16:05.108Z,99563.44
2023-12-16T11:21:14.204Z,99560.47
2023-12-16T11:26:18.512Z,99561.03
2023-12-16T11:31:23.166Z,99544.31
2023-12-16T11:37:03.941Z,99525.31
2023-12-16T11:42:08.005Z,99521.50
2023-12-16T11:47:20.004Z,99509.59
2023-12-16T11:52:23.947Z,99518.91
2023-12-16T11:57:27.829Z,99520.28
2023-12-16T12:02:32.107Z,99521.00
2023-12-16T12:07:35.453Z,99512.34
2023-12-16T12:12:38.726Z,99505.97
2023-12-16T12:17:43.188Z,99510.31
2023-12-16T12:22:46.440Z,99501.88
2023-12-16T12:27:50.129Z,99497.31
2023-12-16T12:32:54.621Z,99492.25
2023-12-16T12:37:58.385Z,99484.28
2023-12-16T12:43:01.724Z,99470.16
2023-12-16T12:48:14.033Z,99473.47
2023-12-16T12:53:23.150Z,99461.13
2023-12-16T12:58:31.179Z,99457.97
2023-12-16T13:03:36.613Z,99461.28
2023-12-16T13:08:39.686Z,99465.94
2023-12-16T13:13:42.661Z,99462.53
2023-12-16T13:18:47.511Z,99460.19
2023-12-16T18:48:38.391Z,99617.00
2023-12-16T18:53:41.626Z,99621.09
2023-12-16T18:58:44.636Z,99616.66
2023-12-16T19:03:49.676Z,99623.28
2023-12-16T19:08:52.818Z,99639.16
2023-12-16T19:13:55.898Z,99641.09
2023-12-16T19:19:00.657Z,99647.06
2023-12-16T19:24:03.751Z,99649.53
2023-12-16T19:29:06.873Z,99646.41
2023-12-16T19:34:11.298Z,99649.53
2023-12-16T19:39:19.856Z,99657.69
2023-12-16T19:44:24.101Z,99662.47
2023-12-16T19:49:28.850Z,99668.84
2023-12-16T19:54:32.299Z,99673.25
2023-12-16T19:59:38.022Z,99671.28
2023-12-16T20:04:44.104Z,99666.53
2023-12-16T20:09:47.396Z,99669.94
2023-12-16T20:14:50.510Z,99671.31
2023-12-16T20:19:55.014Z,99681.81
2023-12-16T20:24:58.119Z,99686.22
2023-12-16T20:30:02.198Z,99691.47
2023-12-16T20:35:08.288Z,99692.56
2023-12-16T20:40:28.883Z,99691.94
2023-12-16T20:45:32.621Z,99690.38
2023-12-16T20:50:37.275Z,99704.03
2023-12-16T20:55:40.541Z,99700.38
2023-12-16T21:00:44.139Z,99695.44
2023-12-16T21:05:48.623Z,99694.75
2023-12-16T21:10:51.691Z,99698.72
2023-12-16T21:15:55.388Z,99698.53
2023-12-16T21:20:59.670Z,99699.31
2023-12-16T21:26:02.637Z,99698.44
2023-12-16T21:31:06.992Z,99696.56
2023-12-16T21:36:11.757Z,99695.25
2023-12-16T21:41:14.714Z,99703.06
2023-12-16T21:46:17.684Z,99693.59
2023-12-16T21:51:22.716Z,99692.59
2023-12-16T21:56:27.146Z,99680.72
2023-12-16T22:01:30.613Z,99695.06
2023-12-16T22:06:35.037Z,99697.53
2023-12-16T22:11:38.073Z,99696.16
2023-12-16T22:16:41.045Z,99709.81
2023-12-16T22:21:45.404Z,99713.06
2023-12-16T22:26:50.546Z,99700.31
2023-12-16T22:31:54.618Z,99689.41
2023-12-16T22:36:58.993Z,99684.88
2023-12-16T22:42:01.933Z,99690.81
2023-12-16T22:47:05.375Z,99692.00
2023-12-16T22:52:09.691Z,99683.97
2023-12-16T22:57:12.794Z,99692.56
2023-12-16T23:02:15.940Z,99695.34
2023-12-16T23:07:20.667Z,99693.97
2023-12-16T23:12:23.607Z,99685.25
2023-12-16T23:17:26.687Z,99686.84
2023-12-16T23:22:31.091Z,99687.59
2023-12-16T23:27:34.033Z,99691.84
2023-12-16T23:32:37.001Z,99693.16
2023-12-16T23:37:41.537Z,99681.09
2023-12-16T23:42:44.687Z,99697.53
2023-12-16T23:47:47.798Z,99700.69
2023-12-16T23:52:52.206Z,99704.03
2023-12-16T23:57:55.147Z,99703.63
